createdAt,value
2019-01-05T00:00:46.308Z,34.70
2019-01-05T00:03:34.238Z,38.20
2019-01-05T00:06:21.218Z,34.27
2019-01-05T00:09:21.486Z,39.43
2019-01-05T00:12:09.312Z,37.30
2019-01-05T00:15:00.471Z,37.30
2019-01-05T00:17:47.451Z,41.00
2019-01-05T00:20:36.111Z,38.80
2019-01-05T00:23:39.108Z,36.73
2019-01-05T00:26:26.477Z,34.77
2019-01-05T00:29:07.495Z,34.77
2019-01-05T00:31:52.890Z,37.10
2019-01-05T00:34:44.988Z,40.20
2019-01-05T00:37:29.996Z,39.40
2019-01-05T00:40:19.913Z,37.87
2019-01-05T00:43:17.162Z,35.80
2019-01-05T00:46:12.025Z,36.57
2019-01-05T00:49:14.003Z,40.00
2019-01-05T00:52:03.238Z,38.67
2019-01-05T00:54:53.239Z,39.63
2019-01-05T00:57:37.646Z,38.67
2019-01-05T01:00:24.684Z,39.80
2019-01-05T01:03:27.818Z,39.53
2019-01-05T01:06:16.855Z,36.37
2019-01-05T01:09:04.827Z,37.33
2019-01-05T01:12:08.534Z,36.97
2019-01-05T01:14:54.587Z,34.87
2019-01-05T01:17:41.336Z,35.67
2019-01-05T01:20:45.136Z,32.37
2019-01-05T01:23:36.042Z,37.30
2019-01-05T01:26:23.182Z,37.10
2019-01-05T01:29:11.754Z,35.43
2019-01-05T01:31:59.776Z,36.40
2019-01-05T01:34:48.346Z,35.07
2019-01-05T01:37:31.010Z,32.20
2019-01-05T01:40:25.580Z,34.30
2019-01-05T01:43:12.344Z,32.43
2019-01-05T01:46:02.679Z,36.23
2019-01-05T01:48:42.874Z,31.60
2019-01-05T01:51:30.271Z,33.93
2019-01-05T01:54:18.431Z,32.90
2019-01-05T01:57:18.688Z,32.47
2019-01-05T02:00:01.770Z,32.20
2019-01-05T02:02:45.185Z,29.70
2019-01-05T02:05:45.502Z,32.40
2019-01-05T02:08:41.395Z,31.30
2019-01-05T02:11:35.600Z,34.10
2019-01-05T02:14:23.747Z,29.70
2019-01-05T02:17:32.014Z,28.40
2019-01-05T02:20:35.173Z,29.63
2019-01-05T02:24:01.433Z,29.77
2019-01-05T02:27:22.213Z,27.27
2019-01-05T02:31:00.462Z,22.77
2019-01-05T02:34:45.436Z,24.70
2019-01-05T02:38:12.448Z,23.33
2019-01-05T02:41:47.296Z,18.70
2019-01-05T02:45:18.006Z,21.27
2019-01-05T02:48:40.258Z,19.43
2019-01-05T02:51:57.703Z,16.70
2019-01-05T02:55:34.320Z,19.27
2019-01-05T02:58:59.324Z,16.63
2019-01-05T03:02:22.084Z,14.63
2019-01-05T03:05:41.341Z,16.03
2019-01-05T03:09:17.036Z,17.50
2019-01-05T03:12:51.601Z,15.43
2019-01-05T03:16:11.035Z,17.87
2019-01-05T03:19:23.948Z,16.60
2019-01-05T03:22:41.612Z,16.00
2019-01-05T03:26:01.673Z,16.80
2019-01-05T03:29:23.761Z,14.87
2019-01-05T03:32:42.805Z,18.17
2019-01-05T03:36:01.009Z,16.17
2019-01-05T03:39:43.506Z,17.10
2019-01-05T03:43:12.608Z,16.23
2019-01-05T03:46:55.585Z,14.47
2019-01-05T03:50:16.690Z,15.20
2019-01-05T03:53:49.824Z,13.70
2019-01-05T03:57:21.277Z,14.30
2019-01-05T04:01:05.816Z,15.80
2019-01-05T04:04:40.206Z,13.00
2019-01-05T04:08:06.631Z,10.30
2019-01-05T04:11:39.741Z,13.80
2019-01-05T04:15:08.298Z,12.53
2019-01-05T04:18:23.134Z,11.77
2019-01-05T04:21:45.871Z,11.77
2019-01-05T04:25:24.258Z,12.87
2019-01-05T04:28:46.485Z,12.60
2019-01-05T04:32:03.931Z,11.83
2019-01-05T04:35:28.049Z,13.73
2019-01-05T04:38:47.140Z,14.80
2019-01-05T04:41:52.637Z,13.37
2019-01-05T04:45:04.565Z,13.00
2019-01-05T04:48:18.372Z,10.03
2019-01-05T04:51:59.275Z,12.00
2019-01-05T04:55:14.834Z,10.53
2019-01-05T04:58:43.907Z,11.73
2019-01-05T05:02:12.401Z,10.23
2019-01-05T05:05:46.522Z,9.50
2019-01-05T05:09:49.144Z,12.47
2019-01-05T05:13:12.204Z,15.57
2019-01-05T05:16:56.170Z,13.90
2019-01-05T05:20:17.695Z,12.23
2019-01-05T05:23:41.065Z,14.63
2019-01-05T05:27:26.752Z,14.07
2019-01-05T05:30:39.214Z,17.17
2019-01-05T05:34:27.743Z,14.10
2019-01-05T05:37:55.116Z,16.60
2019-01-05T05:41:25.234Z,15.70
2019-01-05T05:44:55.601Z,14.67
2019-01-05T05:48:37.358Z,15.77
2019-01-05T05:52:20.095Z,14.03
2019-01-05T05:55:47.364Z,13.43
2019-01-05T05:59:14.338Z,13.30
2019-01-05T06:02:43.719Z,11.87
2019-01-05T06:06:23.365Z,12.67
2019-01-05T06:09:55.063Z,14.27
2019-01-05T06:13:28.655Z,12.10
2019-01-05T06:16:42.691Z,11.00
2019-01-05T06:20:01.010Z,12.83
2019-01-05T06:23:29.153Z,13.50
2019-01-05T06:27:02.951Z,14.77
2019-01-05T06:30:45.871Z,16.53
2019-01-05T06:33:59.419Z,16.30
2019-01-05T06:47:49.147Z,16.63
2019-01-05T06:51:16.449Z,18.40
2019-01-05T06:54:40.348Z,16.90
2019-01-05T06:58:16.343Z,15.17
2019-01-05T07:01:46.708Z,17.77
2019-01-05T07:05:24.514Z,14.47
2019-01-05T07:08:46.939Z,16.80
2019-01-05T07:12:05.147Z,14.77
2019-01-05T07:15:51.104Z,13.17
2019-01-05T07:19:27.640Z,12.10
2019-01-05T07:22:59.261Z,12.97
2019-01-05T07:26:36.188Z,8.83
2019-01-05T07:30:14.777Z,9.40
2019-01-05T07:33:50.316Z,7.03
2019-01-05T07:37:20.996Z,7.43
2019-01-05T07:41:04.539Z,5.57
2019-01-05T07:44:23.609Z,4.37
2019-01-05T07:47:59.767Z,4.03
2019-01-05T07:51:42.346Z,5.03
2019-01-05T07:55:04.855Z,2.73
2019-01-05T07:58:25.222Z,3.83
2019-01-05T08:02:04.754Z,4.83
2019-01-05T08:05:19.267Z,3.73
2019-01-05T08:08:56.198Z,5.00
2019-01-05T08:12:30.276Z,5.80
2019-01-05T08:16:05.142Z,4.70
2019-01-05T08:19:57.655Z,3.97
2019-01-05T08:23:24.299Z,4.17
2019-01-05T08:26:48.074Z,4.03
2019-01-05T08:30:07.904Z,4.80
2019-01-05T08:33:46.599Z,4.73
2019-01-05T08:37:06.742Z,5.43
2019-01-05T08:40:41.971Z,4.53
2019-01-05T08:44:29.421Z,4.77
2019-01-05T08:48:01.600Z,4.30
2019-01-05T08:51:41.928Z,4.37
2019-01-05T08:55:09.925Z,4.23
2019-01-05T08:58:33.773Z,5.50
2019-01-05T09:01:49.573Z,6.27
2019-01-05T09:05:09.171Z,5.57
2019-01-05T09:08:29.215Z,6.07
2019-01-05T09:11:50.519Z,5.73
2019-01-05T09:15:54.628Z,5.60
2019-01-05T09:19:37.982Z,5.57
2019-01-05T09:23:16.793Z,4.87
2019-01-05T09:27:20.483Z,5.43
2019-01-05T09:30:53.769Z,4.67
2019-01-05T09:34:15.085Z,6.20
2019-01-05T09:38:00.400Z,4.30
2019-01-05T09:41:38.190Z,4.60
2019-01-05T09:45:01.975Z,4.93
2019-01-05T09:48:40.275Z,4.53
2019-01-05T09:52:24.679Z,3.70
2019-01-05T09:56:10.002Z,3.87
2019-01-05T09:59:29.628Z,2.30
2019-01-05T10:03:04.396Z,3.20
2019-01-05T10:06:24.127Z,3.90
2019-01-05T10:10:18.837Z,2.60
2019-01-05T10:13:56.675Z,3.27
2019-01-05T10:17:27.484Z,3.00
2019-01-05T10:20:53.755Z,3.73
2019-01-05T10:24:25.407Z,3.20
2019-01-05T10:27:50.665Z,2.90
2019-01-05T10:31:29.113Z,3.57
2019-01-05T10:35:11.009Z,3.63
2019-01-05T10:38:47.944Z,2.80
2019-01-05T10:42:26.250Z,3.40
2019-01-05T10:45:56.890Z,3.20
2019-01-05T10:49:19.492Z,4.20
2019-01-05T10:52:47.176Z,2.90
2019-01-05T10:56:23.959Z,2.83
2019-01-05T10:59:46.335Z,3.00
2019-01-05T11:03:39.234Z,4.00
2019-01-05T11:06:59.117Z,3.93
2019-01-05T11:10:34.656Z,2.73
2019-01-05T11:14:15.665Z,4.63
2019-01-05T11:17:19.502Z,5.00
2019-01-05T11:20:36.816Z,4.00
2019-01-05T11:23:41.532Z,4.27
2019-01-05T11:26:57.883Z,5.83
2019-01-05T11:30:40.512Z,3.20
2019-01-05T11:34:22.175Z,5.10
2019-01-05T11:37:35.955Z,3.10
2019-01-05T11:40:54.568Z,4.53
2019-01-05T11:44:17.299Z,4.20
2019-01-05T11:47:44.382Z,3.80
2019-01-05T11:51:12.288Z,3.30
2019-01-05T11:54:23.481Z,3.17
2019-01-05T11:58:06.499Z,3.63
2019-01-05T12:01:17.454Z,3.30
2019-01-05T12:04:55.733Z,4.20
2019-01-05T12:08:29.003Z,5.90
2019-01-05T12:11:56.475Z,5.13
2019-01-05T12:15:30.489Z,4.77
2019-01-05T12:19:05.991Z,4.83
2019-01-05T12:22:37.262Z,4.37
2019-01-05T12:25:55.328Z,4.83
2019-01-05T12:29:20.184Z,5.47
2019-01-05T12:32:47.661Z,4.40
2019-01-05T12:36:28.051Z,5.03
2019-01-05T12:40:15.569Z,4.33
2019-01-05T12:43:59.507Z,5.97
2019-01-05T12:47:09.353Z,5.37
2019-01-05T12:50:41.967Z,5.53
2019-01-05T12:54:17.879Z,3.67
2019-01-05T12:57:56.516Z,3.87
2019-01-05T13:01:26.883Z,3.80
2019-01-05T13:04:56.339Z,4.53
2019-01-05T13:08:37.723Z,3.53
2019-01-05T13:12:18.135Z,4.03
2019-01-05T13:15:51.827Z,3.90
2019-01-05T13:19:20.155Z,4.37
2019-01-05T13:22:59.827Z,3.80
2019-01-05T13:26:30.038Z,3.83
2019-01-05T13:29:58.864Z,3.33
2019-01-05T13:33:23.399Z,3.50
2019-01-05T13:36:48.677Z,3.03
2019-01-05T13:40:04.195Z,3.07
2019-01-05T13:43:34.868Z,3.60
2019-01-05T13:47:01.095Z,3.40
2019-01-05T13:50:32.374Z,2.87
2019-01-05T13:53:35.488Z,3.03
2019-01-05T13:56:32.915Z,2.63
2019-01-05T13:59:22.968Z,2.97
2019-01-05T14:02:18.950Z,2.80
2019-01-05T14:05:17.183Z,3.13
2019-01-05T14:08:23.878Z,2.83
2019-01-05T14:11:10.762Z,2.50
2019-01-05T14:14:17.759Z,2.80
2019-01-05T14:17:04.192Z,2.80
2019-01-05T14:19:50.780Z,2.77
2019-01-05T14:22:38.674Z,2.67
2019-01-05T14:25:30.063Z,2.90
2019-01-05T14:28:16.765Z,2.00
2019-01-05T14:31:04.296Z,2.80
2019-01-05T14:33:53.823Z,2.47
2019-01-05T14:36:41.728Z,2.70
2019-01-05T14:39:33.220Z,2.50
2019-01-05T14:42:20.319Z,2.90
2019-01-05T14:45:16.434Z,3.63
2019-01-05T14:48:02.063Z,3.27
2019-01-05T14:50:47.295Z,3.50
2019-01-05T14:53:33.565Z,3.00
2019-01-05T14:56:20.744Z,2.90
2019-01-05T14:59:27.024Z,3.10
2019-01-05T15:02:29.924Z,3.53
2019-01-05T15:05:32.740Z,3.83
2019-01-05T15:08:20.770Z,2.97
2019-01-05T15:11:14.545Z,3.87
2019-01-05T15:14:16.652Z,3.30
2019-01-05T15:17:02.985Z,2.83
2019-01-05T15:19:54.045Z,3.13
2019-01-05T15:22:43.845Z,2.70
2019-01-05T15:25:30.823Z,2.73
2019-01-05T15:28:31.116Z,3.90
2019-01-05T15:31:21.821Z,3.13
2019-01-05T15:34:09.789Z,4.40
2019-01-05T15:37:00.515Z,4.90
2019-01-05T15:39:54.321Z,4.33
2019-01-05T15:42:41.021Z,5.23
2019-01-05T15:45:41.251Z,6.13
2019-01-05T15:48:25.767Z,6.50
2019-01-05T15:51:12.756Z,4.57
2019-01-05T15:54:06.743Z,3.80
2019-01-05T15:56:53.837Z,4.63
2019-01-05T15:59:42.068Z,5.70
2019-01-05T16:02:34.141Z,4.83
2019-01-05T16:05:19.722Z,4.93
2019-01-05T16:08:22.730Z,5.30
2019-01-05T16:11:09.307Z,5.03
2019-01-05T16:14:04.013Z,5.03
2019-01-05T16:16:55.906Z,5.10
2019-01-05T16:19:37.738Z,6.93
2019-01-05T16:22:25.767Z,7.80
2019-01-05T16:25:12.730Z,6.17
2019-01-05T16:28:06.615Z,7.60
2019-01-05T16:30:57.826Z,7.80
2019-01-05T16:33:55.080Z,6.93
2019-01-05T16:36:42.956Z,8.20
2019-01-05T16:39:34.897Z,8.33
2019-01-05T16:42:28.663Z,8.30
2019-01-05T16:45:16.599Z,11.67
2019-01-05T16:48:04.490Z,7.87
2019-01-05T16:50:51.277Z,8.70
2019-01-05T16:53:39.203Z,9.17
2019-01-05T16:56:26.672Z,9.20
2019-01-05T16:59:23.727Z,7.67
2019-01-05T17:02:26.872Z,9.10
2019-01-05T17:05:29.932Z,6.97
2019-01-05T17:08:17.837Z,8.87
2019-01-05T17:11:03.383Z,8.47
2019-01-05T17:13:50.103Z,9.47
2019-01-05T17:16:37.491Z,8.13
2019-01-05T17:19:24.088Z,10.70
2019-01-05T17:22:04.214Z,7.10
2019-01-05T17:24:50.858Z,8.70
2019-01-05T17:27:38.103Z,6.97
2019-01-05T17:30:36.975Z,7.07
2019-01-05T17:33:25.264Z,7.10
2019-01-05T17:36:05.804Z,7.60
2019-01-05T17:38:59.963Z,9.17
2019-01-05T17:41:46.694Z,9.00
2019-01-05T17:44:33.604Z,7.70
2019-01-05T17:47:30.662Z,8.03
2019-01-05T17:50:27.939Z,6.60
2019-01-05T17:53:27.913Z,7.37
2019-01-05T17:56:11.173Z,7.67
2019-01-05T17:58:53.541Z,8.10
2019-01-05T18:01:40.379Z,7.70
2019-01-05T18:04:43.503Z,8.53
2019-01-05T18:07:46.899Z,8.97
2019-01-05T18:10:33.803Z,8.10
2019-01-05T18:13:20.595Z,6.93
2019-01-05T18:16:19.073Z,5.10
2019-01-05T18:19:11.900Z,6.13
2019-01-05T18:21:59.896Z,5.43
2019-01-05T18:24:46.636Z,6.17
2019-01-05T18:27:33.668Z,6.67
2019-01-05T18:30:20.703Z,6.10
2019-01-05T18:33:11.462Z,6.40
2019-01-05T18:36:14.583Z,5.70
2019-01-05T18:38:53.839Z,6.43
2019-01-05T18:41:41.980Z,7.50
2019-01-05T18:44:40.101Z,7.03
2019-01-05T18:47:26.965Z,7.63
2019-01-05T18:50:11.943Z,8.33
2019-01-05T18:52:58.759Z,7.77
2019-01-05T18:55:45.160Z,7.73
2019-01-05T18:58:25.995Z,7.83
2019-01-05T19:01:16.929Z,7.50
2019-01-05T19:04:03.764Z,8.53
2019-01-05T19:06:51.097Z,8.83
2019-01-05T19:09:54.268Z,9.30
2019-01-05T19:12:48.340Z,8.33
2019-01-05T19:15:28.462Z,10.67
2019-01-05T19:18:25.233Z,9.03
2019-01-05T19:21:28.331Z,9.33
2019-01-05T19:24:15.009Z,12.50
2019-01-05T19:26:51.400Z,10.57
2019-01-05T19:29:34.168Z,8.90
2019-01-05T19:32:32.387Z,7.87
2019-01-05T19:35:12.960Z,8.50
2019-01-05T19:37:59.482Z,8.40
2019-01-05T19:40:50.159Z,10.57
2019-01-05T19:43:38.375Z,11.37
2019-01-05T19:46:25.437Z,12.53
2019-01-05T19:49:12.536Z,11.53
2019-01-05T19:52:00.427Z,11.77
2019-01-05T19:54:50.322Z,11.43
2019-01-05T19:57:37.066Z,12.90
2019-01-05T20:01:02.064Z,13.90
2019-01-05T20:03:49.431Z,12.17
2019-01-05T20:06:35.981Z,12.00
2019-01-05T20:09:23.874Z,13.27
2019-01-05T20:12:11.311Z,12.83
2019-01-05T20:14:57.956Z,14.50
2019-01-05T20:17:50.940Z,10.30
2019-01-05T20:20:37.338Z,13.40
2019-01-05T20:23:26.447Z,13.00
2019-01-05T20:26:20.379Z,13.50
2019-01-05T20:29:07.246Z,13.00
2019-01-05T20:31:50.502Z,14.10
2019-01-05T20:34:37.026Z,12.00
2019-01-05T20:37:19.312Z,11.73
2019-01-05T20:40:05.934Z,9.37
2019-01-05T20:43:12.268Z,10.50
2019-01-05T20:45:59.091Z,11.60
2019-01-05T20:48:47.002Z,10.57
2019-01-05T20:51:34.921Z,11.50
2019-01-05T20:54:21.271Z,11.40
2019-01-05T20:57:07.880Z,10.73
2019-01-05T20:59:58.943Z,11.43
2019-01-05T21:02:46.953Z,10.57
2019-01-05T21:05:33.777Z,9.13
2019-01-05T21:08:14.313Z,10.40
2019-01-05T21:11:02.221Z,9.87
2019-01-05T21:13:44.746Z,9.30
2019-01-05T21:16:31.835Z,9.10
2019-01-05T21:19:18.529Z,9.93
2019-01-05T21:21:58.799Z,9.23
2019-01-05T21:24:56.528Z,8.93
2019-01-05T21:27:59.668Z,10.00
2019-01-05T21:30:41.404Z,9.70
2019-01-05T21:33:35.352Z,12.03
2019-01-05T21:36:26.994Z,9.60
2019-01-05T21:39:13.698Z,9.90
2019-01-05T21:42:03.578Z,10.00
2019-01-05T21:44:49.566Z,9.93
2019-01-05T21:47:41.703Z,9.50
2019-01-05T21:50:27.704Z,8.80
2019-01-05T21:53:24.890Z,8.97
2019-01-05T21:56:11.880Z,9.90
2019-01-05T21:59:09.082Z,9.80
2019-01-05T22:01:55.838Z,9.80
2019-01-05T22:04:52.914Z,7.90
2019-01-05T22:07:37.945Z,7.37
2019-01-05T22:10:25.739Z,6.90
2019-01-05T22:13:12.353Z,7.20
2019-01-05T22:16:03.335Z,6.57
2019-01-05T22:19:00.611Z,5.27
2019-01-05T22:21:51.572Z,5.63
2019-01-05T22:24:37.199Z,6.23
2019-01-05T22:27:28.049Z,6.80
2019-01-05T22:30:21.941Z,7.80
2019-01-05T22:33:07.739Z,5.70
2019-01-05T22:35:54.403Z,5.83
2019-01-05T22:38:42.415Z,5.80
2019-01-05T22:41:30.413Z,4.80
2019-01-05T22:44:17.091Z,5.40
2019-01-05T22:47:06.050Z,5.27
2019-01-05T22:49:53.020Z,6.57
2019-01-05T22:52:47.139Z,6.37
2019-01-05T22:55:30.627Z,6.03
2019-01-05T22:58:31.930Z,7.00
2019-01-05T23:01:35.143Z,6.73
2019-01-05T23:04:33.562Z,6.67
2019-01-05T23:07:24.268Z,5.83
2019-01-05T23:10:11.243Z,6.83
2019-01-05T23:13:08.503Z,6.30
2019-01-05T23:15:55.091Z,6.57
2019-01-05T23:18:53.903Z,4.97
2019-01-05T23:21:40.647Z,8.33
2019-01-05T23:24:27.789Z,6.17
2019-01-05T23:27:14.434Z,8.27
2019-01-05T23:30:16.375Z,6.97
2019-01-05T23:33:04.538Z,8.13
2019-01-05T23:36:04.537Z,5.70
2019-01-05T23:38:52.411Z,5.67
2019-01-05T23:41:43.084Z,5.90
2019-01-05T23:44:42.876Z,5.27
2019-01-05T23:47:29.355Z,4.73
2019-01-05T23:50:12.411Z,4.97
2019-01-05T23:52:58.884Z,5.93
2019-01-05T23:55:45.860Z,6.00
2019-01-05T23:58:57.943Z,6.00
